sensor_id;sensor_type;location;lat;lon;timestamp;P1;durP1;ratioP1;P2;durP2;ratioP2
16436;SDS011;8328;52.206;21.006;2023-10-08T00:01:18;5.43;;;2.73;;
16436;SDS011;8328;52.206;21.006;2023-10-08T00:03:45;6.23;;;3.60;;
16436;SDS011;8328;52.206;21.006;2023-10-08T00:06:18;11.73;;;3.90;;
16436;SDS011;8328;52.206;21.006;2023-10-08T00:08:45;7.93;;;3.50;;
16436;SDS011;8328;52.206;21.006;2023-10-08T00:11:13;5.93;;;3.53;;
16436;SDS011;8328;52.206;21.006;2023-10-08T00:13:41;4.87;;;3.60;;
16436;SDS011;8328;52.206;21.006;2023-10-08T00:16:10;5.87;;;3.47;;
16436;SDS011;8328;52.206;21.006;2023-10-08T00:18:41;5.93;;;3.37;;
16436;SDS011;8328;52.206;21.006;2023-10-08T00:21:17;6.53;;;4.03;;
16436;SDS011;8328;52.206;21.006;2023-10-08T00:23:45;6.50;;;3.40;;
16436;SDS011;8328;52.206;21.006;2023-10-08T00:26:21;7.77;;;4.03;;
16436;SDS011;8328;52.206;21.006;2023-10-08T00:28:55;8.33;;;3.90;;
16436;SDS011;8328;52.206;21.006;2023-10-08T00:31:21;6.53;;;3.73;;
16436;SDS011;8328;52.206;21.006;2023-10-08T00:33:52;9.23;;;4.07;;
16436;SDS011;8328;52.206;21.006;2023-10-08T00:36:19;5.30;;;3.50;;
16436;SDS011;8328;52.206;21.006;2023-10-08T00:38:46;7.17;;;4.07;;
16436;SDS011;8328;52.206;21.006;2023-10-08T00:41:15;8.60;;;4.30;;
16436;SDS011;8328;52.206;21.006;2023-10-08T00:43:42;6.10;;;3.33;;
16436;SDS011;8328;52.206;21.006;2023-10-08T00:46:10;7.40;;;3.97;;
16436;SDS011;8328;52.206;21.006;2023-10-08T00:48:47;9.60;;;4.30;;
16436;SDS011;8328;52.206;21.006;2023-10-08T00:51:14;6.80;;;3.90;;
16436;SDS011;8328;52.206;21.006;2023-10-08T00:53:47;10.70;;;4.27;;
16436;SDS011;8328;52.206;21.006;2023-10-08T00:56:15;6.23;;;3.60;;
16436;SDS011;8328;52.206;21.006;2023-10-08T00:58:44;5.57;;;2.90;;
16436;SDS011;8328;52.206;21.006;2023-10-08T01:01:19;5.37;;;3.83;;
16436;SDS011;8328;52.206;21.006;2023-10-08T01:03:46;7.27;;;3.47;;
16436;SDS011;8328;52.206;21.006;2023-10-08T01:06:21;4.93;;;2.47;;
16436;SDS011;8328;52.206;21.006;2023-10-08T01:08:48;6.47;;;3.17;;
16436;SDS011;8328;52.206;21.006;2023-10-08T01:11:22;6.10;;;3.37;;
16436;SDS011;8328;52.206;21.006;2023-10-08T01:14:04;5.10;;;2.93;;
16436;SDS011;8328;52.206;21.006;2023-10-08T01:16:32;9.83;;;4.13;;
16436;SDS011;8328;52.206;21.006;2023-10-08T01:19:01;6.87;;;3.50;;
16436;SDS011;8328;52.206;21.006;2023-10-08T01:21:30;8.07;;;3.87;;
16436;SDS011;8328;52.206;21.006;2023-10-08T01:24:02;8.13;;;3.20;;
16436;SDS011;8328;52.206;21.006;2023-10-08T01:26:32;8.07;;;3.53;;
16436;SDS011;8328;52.206;21.006;2023-10-08T01:28:59;6.40;;;2.93;;
16436;SDS011;8328;52.206;21.006;2023-10-08T01:31:29;5.40;;;3.40;;
16436;SDS011;8328;52.206;21.006;2023-10-08T01:33:57;5.90;;;3.93;;
16436;SDS011;8328;52.206;21.006;2023-10-08T01:36:25;7.93;;;3.40;;
16436;SDS011;8328;52.206;21.006;2023-10-08T01:38:53;5.93;;;3.43;;
16436;SDS011;8328;52.206;21.006;2023-10-08T01:41:20;12.00;;;4.37;;
16436;SDS011;8328;52.206;21.006;2023-10-08T01:43:54;5.07;;;2.53;;
16436;SDS011;8328;52.206;21.006;2023-10-08T01:46:20;8.87;;;3.30;;
16436;SDS011;8328;52.206;21.006;2023-10-08T01:48:47;6.70;;;3.27;;
16436;SDS011;8328;52.206;21.006;2023-10-08T01:51:18;8.83;;;3.73;;
16436;SDS011;8328;52.206;21.006;2023-10-08T01:53:51;10.67;;;4.33;;
16436;SDS011;8328;52.206;21.006;2023-10-08T01:56:19;7.17;;;3.43;;
16436;SDS011;8328;52.206;21.006;2023-10-08T01:58:45;8.90;;;3.80;;
16436;SDS011;8328;52.206;21.006;2023-10-08T02:01:11;9.00;;;4.27;;
16436;SDS011;8328;52.206;21.006;2023-10-08T02:03:38;5.83;;;3.43;;
16436;SDS011;8328;52.206;21.006;2023-10-08T02:06:06;5.80;;;3.10;;
16436;SDS011;8328;52.206;21.006;2023-10-08T02:08:33;10.77;;;4.30;;
16436;SDS011;8328;52.206;21.006;2023-10-08T02:10:59;7.27;;;3.70;;
16436;SDS011;8328;52.206;21.006;2023-10-08T02:13:27;4.93;;;3.03;;
16436;SDS011;8328;52.206;21.006;2023-10-08T02:15:53;7.80;;;3.50;;
16436;SDS011;8328;52.206;21.006;2023-10-08T02:18:20;5.60;;;3.70;;
16436;SDS011;8328;52.206;21.006;2023-10-08T02:20:51;9.63;;;4.17;;
16436;SDS011;8328;52.206;21.006;2023-10-08T02:23:17;8.60;;;4.43;;
16436;SDS011;8328;52.206;21.006;2023-10-08T02:25:43;8.33;;;4.30;;
16436;SDS011;8328;52.206;21.006;2023-10-08T02:28:10;7.80;;;3.97;;
16436;SDS011;8328;52.206;21.006;2023-10-08T02:30:41;10.07;;;4.13;;
16436;SDS011;8328;52.206;21.006;2023-10-08T02:33:07;10.57;;;4.40;;
16436;SDS011;8328;52.206;21.006;2023-10-08T02:35:42;10.33;;;4.10;;
16436;SDS011;8328;52.206;21.006;2023-10-08T02:38:10;6.30;;;3.63;;
16436;SDS011;8328;52.206;21.006;2023-10-08T02:40:49;8.90;;;4.27;;
16436;SDS011;8328;52.206;21.006;2023-10-08T02:43:19;8.90;;;3.20;;
16436;SDS011;8328;52.206;21.006;2023-10-08T02:45:45;13.83;;;3.50;;
16436;SDS011;8328;52.206;21.006;2023-10-08T02:48:14;8.23;;;3.77;;
16436;SDS011;8328;52.206;21.006;2023-10-08T02:50:42;7.60;;;3.97;;
16436;SDS011;8328;52.206;21.006;2023-10-08T02:53:10;7.13;;;3.97;;
16436;SDS011;8328;52.206;21.006;2023-10-08T02:55:40;5.50;;;3.10;;
16436;SDS011;8328;52.206;21.006;2023-10-08T02:58:09;7.37;;;3.57;;
16436;SDS011;8328;52.206;21.006;2023-10-08T03:00:45;7.77;;;3.70;;
16436;SDS011;8328;52.206;21.006;2023-10-08T03:03:15;6.20;;;3.10;;
16436;SDS011;8328;52.206;21.006;2023-10-08T03:05:51;3.40;;;2.67;;
16436;SDS011;8328;52.206;21.006;2023-10-08T03:08:18;5.50;;;2.97;;
16436;SDS011;8328;52.206;21.006;2023-10-08T03:10:47;9.07;;;3.80;;
16436;SDS011;8328;52.206;21.006;2023-10-08T03:13:15;8.90;;;3.83;;
16436;SDS011;8328;52.206;21.006;2023-10-08T03:15:42;9.30;;;3.60;;
16436;SDS011;8328;52.206;21.006;2023-10-08T03:18:26;7.70;;;3.70;;
16436;SDS011;8328;52.206;21.006;2023-10-08T03:21:05;10.27;;;3.00;;
16436;SDS011;8328;52.206;21.006;2023-10-08T03:23:45;7.87;;;3.07;;
16436;SDS011;8328;52.206;21.006;2023-10-08T03:26:13;6.80;;;2.80;;
16436;SDS011;8328;52.206;21.006;2023-10-08T03:29:02;7.13;;;2.60;;
16436;SDS011;8328;52.206;21.006;2023-10-08T03:31:41;6.27;;;2.90;;
16436;SDS011;8328;52.206;21.006;2023-10-08T03:34:13;4.97;;;1.70;;
16436;SDS011;8328;52.206;21.006;2023-10-08T03:36:43;3.80;;;2.07;;
16436;SDS011;8328;52.206;21.006;2023-10-08T03:39:13;4.40;;;2.07;;
16436;SDS011;8328;52.206;21.006;2023-10-08T03:41:42;3.53;;;1.93;;
16436;SDS011;8328;52.206;21.006;2023-10-08T03:44:23;4.23;;;1.90;;
16436;SDS011;8328;52.206;21.006;2023-10-08T03:46:50;4.70;;;2.37;;
16436;SDS011;8328;52.206;21.006;2023-10-08T03:49:18;3.37;;;1.80;;
16436;SDS011;8328;52.206;21.006;2023-10-08T03:51:47;5.77;;;2.50;;
16436;SDS011;8328;52.206;21.006;2023-10-08T03:54:17;3.83;;;1.90;;
16436;SDS011;8328;52.206;21.006;2023-10-08T03:56:55;4.03;;;2.20;;
16436;SDS011;8328;52.206;21.006;2023-10-08T03:59:21;4.63;;;2.20;;
16436;SDS011;8328;52.206;21.006;2023-10-08T04:02:00;4.63;;;1.90;;
16436;SDS011;8328;52.206;21.006;2023-10-08T04:04:40;4.03;;;1.40;;
16436;SDS011;8328;52.206;21.006;2023-10-08T04:07:20;6.00;;;1.87;;
16436;SDS011;8328;52.206;21.006;2023-10-08T04:09:59;2.80;;;1.27;;
16436;SDS011;8328;52.206;21.006;2023-10-08T04:12:35;2.53;;;1.50;;
16436;SDS011;8328;52.206;21.006;2023-10-08T04:15:06;4.03;;;1.80;;
16436;SDS011;8328;52.206;21.006;2023-10-08T04:17:32;2.53;;;1.40;;
16436;SDS011;8328;52.206;21.006;2023-10-08T04:20:09;2.20;;;1.20;;
16436;SDS011;8328;52.206;21.006;2023-10-08T04:22:55;4.20;;;1.60;;
16436;SDS011;8328;52.206;21.006;2023-10-08T04:25:21;2.67;;;1.07;;
16436;SDS011;8328;52.206;21.006;2023-10-08T04:27:47;4.33;;;1.40;;
16436;SDS011;8328;52.206;21.006;2023-10-08T04:30:15;1.90;;;1.00;;
16436;SDS011;8328;52.206;21.006;2023-10-08T04:32:41;1.57;;;1.03;;
16436;SDS011;8328;52.206;21.006;2023-10-08T04:35:09;2.30;;;1.20;;
16436;SDS011;8328;52.206;21.006;2023-10-08T04:37:40;1.97;;;1.00;;
16436;SDS011;8328;52.206;21.006;2023-10-08T04:40:06;2.83;;;1.30;;
16436;SDS011;8328;52.206;21.006;2023-10-08T04:42:41;2.43;;;1.13;;
16436;SDS011;8328;52.206;21.006;2023-10-08T04:45:10;4.70;;;1.60;;
16436;SDS011;8328;52.206;21.006;2023-10-08T04:47:39;2.57;;;1.17;;
16436;SDS011;8328;52.206;21.006;2023-10-08T04:50:07;2.93;;;1.43;;
16436;SDS011;8328;52.206;21.006;2023-10-08T04:52:40;2.60;;;1.43;;
16436;SDS011;8328;52.206;21.006;2023-10-08T04:55:12;4.57;;;1.50;;
16436;SDS011;8328;52.206;21.006;2023-10-08T04:57:42;1.30;;;1.00;;
16436;SDS011;8328;52.206;21.006;2023-10-08T05:00:08;2.53;;;1.30;;
16436;SDS011;8328;52.206;21.006;2023-10-08T05:02:39;6.57;;;1.43;;
16436;SDS011;8328;52.206;21.006;2023-10-08T05:05:19;3.67;;;1.30;;
16436;SDS011;8328;52.206;21.006;2023-10-08T05:07:45;3.37;;;1.67;;
16436;SDS011;8328;52.206;21.006;2023-10-08T05:10:11;3.33;;;1.43;;
16436;SDS011;8328;52.206;21.006;2023-10-08T05:12:50;2.27;;;1.30;;
16436;SDS011;8328;52.206;21.006;2023-10-08T05:15:36;1.70;;;0.97;;
16436;SDS011;8328;52.206;21.006;2023-10-08T05:18:06;1.40;;;0.63;;
16436;SDS011;8328;52.206;21.006;2023-10-08T05:21:11;2.63;;;1.00;;
16436;SDS011;8328;52.206;21.006;2023-10-08T05:23:51;5.60;;;1.50;;
16436;SDS011;8328;52.206;21.006;2023-10-08T05:26:38;1.70;;;0.87;;
16436;SDS011;8328;52.206;21.006;2023-10-08T05:29:10;3.10;;;1.10;;
16436;SDS011;8328;52.206;21.006;2023-10-08T05:32:11;0.83;;;0.70;;
16436;SDS011;8328;52.206;21.006;2023-10-08T05:35:04;1.80;;;0.93;;
16436;SDS011;8328;52.206;21.006;2023-10-08T05:37:48;2.50;;;1.10;;
16436;SDS011;8328;52.206;21.006;2023-10-08T05:40:27;2.10;;;1.07;;
16436;SDS011;8328;52.206;21.006;2023-10-08T05:43:19;3.90;;;1.43;;
16436;SDS011;8328;52.206;21.006;2023-10-08T05:46:06;1.47;;;0.80;;
16436;SDS011;8328;52.206;21.006;2023-10-08T05:48:48;2.23;;;0.93;;
16436;SDS011;8328;52.206;21.006;2023-10-08T05:51:49;2.80;;;0.80;;
16436;SDS011;8328;52.206;21.006;2023-10-08T05:54:15;1.73;;;0.80;;
16436;SDS011;8328;52.206;21.006;2023-10-08T05:57:05;1.20;;;0.77;;
16436;SDS011;8328;52.206;21.006;2023-10-08T05:59:38;1.73;;;0.87;;
16436;SDS011;8328;52.206;21.006;2023-10-08T06:02:18;1.43;;;1.03;;
16436;SDS011;8328;52.206;21.006;2023-10-08T06:05:14;1.87;;;1.10;;
16436;SDS011;8328;52.206;21.006;2023-10-08T06:07:55;1.73;;;0.80;;
16436;SDS011;8328;52.206;21.006;2023-10-08T06:10:36;1.93;;;1.00;;
16436;SDS011;8328;52.206;21.006;2023-10-08T06:13:04;1.10;;;0.70;;
16436;SDS011;8328;52.206;21.006;2023-10-08T06:15:55;0.87;;;0.53;;
16436;SDS011;8328;52.206;21.006;2023-10-08T06:18:26;1.40;;;0.80;;
16436;SDS011;8328;52.206;21.006;2023-10-08T06:20:53;1.20;;;0.90;;
16436;SDS011;8328;52.206;21.006;2023-10-08T06:23:25;0.50;;;0.50;;
16436;SDS011;8328;52.206;21.006;2023-10-08T06:25:55;1.10;;;0.70;;
16436;SDS011;8328;52.206;21.006;2023-10-08T06:28:24;2.30;;;0.83;;
16436;SDS011;8328;52.206;21.006;2023-10-08T06:30:54;1.20;;;0.80;;
16436;SDS011;8328;52.206;21.006;2023-10-08T06:33:22;10.50;;;0.90;;
16436;SDS011;8328;52.206;21.006;2023-10-08T06:35:50;1.07;;;0.80;;
16436;SDS011;8328;52.206;21.006;2023-10-08T06:38:35;2.03;;;1.30;;
16436;SDS011;8328;52.206;21.006;2023-10-08T06:41:04;2.40;;;0.70;;
16436;SDS011;8328;52.206;21.006;2023-10-08T06:43:46;1.13;;;0.97;;
16436;SDS011;8328;52.206;21.006;2023-10-08T06:46:29;1.20;;;0.80;;
16436;SDS011;8328;52.206;21.006;2023-10-08T06:48:59;1.67;;;0.90;;
16436;SDS011;8328;52.206;21.006;2023-10-08T06:51:25;2.57;;;0.50;;
16436;SDS011;8328;52.206;21.006;2023-10-08T06:53:51;1.73;;;0.93;;
16436;SDS011;8328;52.206;21.006;2023-10-08T06:56:19;1.60;;;0.80;;
16436;SDS011;8328;52.206;21.006;2023-10-08T06:58:45;1.33;;;0.80;;
16436;SDS011;8328;52.206;21.006;2023-10-08T07:01:15;2.90;;;1.10;;
16436;SDS011;8328;52.206;21.006;2023-10-08T07:03:51;1.30;;;0.73;;
16436;SDS011;8328;52.206;21.006;2023-10-08T07:06:21;1.37;;;0.60;;
16436;SDS011;8328;52.206;21.006;2023-10-08T07:09:14;1.20;;;0.80;;
16436;SDS011;8328;52.206;21.006;2023-10-08T07:11:53;1.23;;;0.67;;
16436;SDS011;8328;52.206;21.006;2023-10-08T07:14:22;4.27;;;0.87;;
16436;SDS011;8328;52.206;21.006;2023-10-08T07:16:52;2.70;;;0.93;;
16436;SDS011;8328;52.206;21.006;2023-10-08T07:19:20;1.50;;;0.83;;
16436;SDS011;8328;52.206;21.006;2023-10-08T07:21:48;1.10;;;0.70;;
16436;SDS011;8328;52.206;21.006;2023-10-08T07:24:19;1.93;;;0.90;;
16436;SDS011;8328;52.206;21.006;2023-10-08T07:26:47;1.60;;;0.80;;
16436;SDS011;8328;52.206;21.006;2023-10-08T07:29:15;2.30;;;1.00;;
16436;SDS011;8328;52.206;21.006;2023-10-08T07:31:45;1.73;;;0.90;;
16436;SDS011;8328;52.206;21.006;2023-10-08T07:34:17;2.80;;;1.20;;
16436;SDS011;8328;52.206;21.006;2023-10-08T07:36:50;1.67;;;0.93;;
16436;SDS011;8328;52.206;21.006;2023-10-08T07:39:18;1.80;;;0.87;;
16436;SDS011;8328;52.206;21.006;2023-10-08T07:41:57;2.80;;;0.97;;
16436;SDS011;8328;52.206;21.006;2023-10-08T07:44:25;4.27;;;1.30;;
16436;SDS011;8328;52.206;21.006;2023-10-08T07:46:53;2.40;;;1.10;;
16436;SDS011;8328;52.206;21.006;2023-10-08T07:49:20;2.63;;;0.93;;
16436;SDS011;8328;52.206;21.006;2023-10-08T07:51:48;1.17;;;0.73;;
16436;SDS011;8328;52.206;21.006;2023-10-08T07:56:44;2.10;;;1.17;;
16436;SDS011;8328;52.206;21.006;2023-10-08T07:59:11;2.87;;;1.33;;
16436;SDS011;8328;52.206;21.006;2023-10-08T08:01:40;2.87;;;1.20;;
16436;SDS011;8328;52.206;21.006;2023-10-08T08:04:08;1.07;;;0.63;;
16436;SDS011;8328;52.206;21.006;2023-10-08T08:06:36;1.67;;;0.70;;
16436;SDS011;8328;52.206;21.006;2023-10-08T08:09:02;2.30;;;1.00;;
16436;SDS011;8328;52.206;21.006;2023-10-08T08:11:44;2.10;;;1.03;;
16436;SDS011;8328;52.206;21.006;2023-10-08T08:14:11;1.70;;;0.90;;
16436;SDS011;8328;52.206;21.006;2023-10-08T08:16:41;2.07;;;1.07;;
16436;SDS011;8328;52.206;21.006;2023-10-08T08:19:10;1.77;;;0.90;;
16436;SDS011;8328;52.206;21.006;2023-10-08T08:21:38;2.67;;;1.23;;
16436;SDS011;8328;52.206;21.006;2023-10-08T08:24:10;2.27;;;0.90;;
16436;SDS011;8328;52.206;21.006;2023-10-08T08:26:37;3.00;;;1.20;;
16436;SDS011;8328;52.206;21.006;2023-10-08T08:29:26;1.37;;;0.87;;
16436;SDS011;8328;52.206;21.006;2023-10-08T08:31:53;1.93;;;1.10;;
16436;SDS011;8328;52.206;21.006;2023-10-08T08:34:21;1.50;;;0.90;;
16436;SDS011;8328;52.206;21.006;2023-10-08T08:36:49;1.90;;;1.00;;
16436;SDS011;8328;52.206;21.006;2023-10-08T08:39:15;2.20;;;0.93;;
16436;SDS011;8328;52.206;21.006;2023-10-08T08:41:54;1.07;;;0.73;;
16436;SDS011;8328;52.206;21.006;2023-10-08T08:44:28;1.23;;;0.70;;
16436;SDS011;8328;52.206;21.006;2023-10-08T08:46:55;3.60;;;0.57;;
16436;SDS011;8328;52.206;21.006;2023-10-08T08:49:23;1.90;;;1.00;;
16436;SDS011;8328;52.206;21.006;2023-10-08T08:51:49;1.33;;;0.70;;
16436;SDS011;8328;52.206;21.006;2023-10-08T08:54:20;2.23;;;0.87;;
16436;SDS011;8328;52.206;21.006;2023-10-08T08:56:46;2.13;;;1.20;;
16436;SDS011;8328;52.206;21.006;2023-10-08T08:59:13;3.53;;;1.20;;
16436;SDS011;8328;52.206;21.006;2023-10-08T09:01:42;2.27;;;1.10;;
16436;SDS011;8328;52.206;21.006;2023-10-08T09:04:08;2.60;;;1.17;;
16436;SDS011;8328;52.206;21.006;2023-10-08T09:06:35;3.73;;;1.40;;
16436;SDS011;8328;52.206;21.006;2023-10-08T09:09:04;1.43;;;0.93;;
16436;SDS011;8328;52.206;21.006;2023-10-08T09:11:47;2.37;;;1.10;;
16436;SDS011;8328;52.206;21.006;2023-10-08T09:14:16;1.10;;;0.70;;
16436;SDS011;8328;52.206;21.006;2023-10-08T09:16:42;2.43;;;1.00;;
16436;SDS011;8328;52.206;21.006;2023-10-08T09:19:09;2.23;;;0.90;;
16436;SDS011;8328;52.206;21.006;2023-10-08T09:21:41;1.70;;;1.00;;
16436;SDS011;8328;52.206;21.006;2023-10-08T09:24:07;1.43;;;1.03;;
16436;SDS011;8328;52.206;21.006;2023-10-08T09:26:35;1.37;;;0.90;;
16436;SDS011;8328;52.206;21.006;2023-10-08T09:29:04;1.27;;;0.90;;
16436;SDS011;8328;52.206;21.006;2023-10-08T09:31:30;1.00;;;0.70;;
16436;SDS011;8328;52.206;21.006;2023-10-08T09:34:00;3.27;;;0.80;;
16436;SDS011;8328;52.206;21.006;2023-10-08T09:36:27;1.90;;;1.00;;
16436;SDS011;8328;52.206;21.006;2023-10-08T09:39:00;1.07;;;0.60;;
16436;SDS011;8328;52.206;21.006;2023-10-08T09:41:30;1.43;;;0.90;;
16436;SDS011;8328;52.206;21.006;2023-10-08T09:43:58;2.17;;;1.20;;
16436;SDS011;8328;52.206;21.006;2023-10-08T09:46:33;2.23;;;0.97;;
16436;SDS011;8328;52.206;21.006;2023-10-08T09:49:02;1.93;;;0.87;;
16436;SDS011;8328;52.206;21.006;2023-10-08T09:51:33;2.17;;;0.80;;
16436;SDS011;8328;52.206;21.006;2023-10-08T09:54:17;1.13;;;0.83;;
16436;SDS011;8328;52.206;21.006;2023-10-08T09:56:45;2.07;;;0.70;;
16436;SDS011;8328;52.206;21.006;2023-10-08T09:59:11;1.00;;;0.60;;
16436;SDS011;8328;52.206;21.006;2023-10-08T10:01:40;1.30;;;0.70;;
16436;SDS011;8328;52.206;21.006;2023-10-08T10:04:11;1.57;;;0.73;;
16436;SDS011;8328;52.206;21.006;2023-10-08T10:06:38;1.43;;;0.90;;
16436;SDS011;8328;52.206;21.006;2023-10-08T10:09:05;1.27;;;0.53;;
16436;SDS011;8328;52.206;21.006;2023-10-08T10:11:45;1.43;;;0.77;;
16436;SDS011;8328;52.206;21.006;2023-10-08T10:14:14;1.53;;;0.80;;
16436;SDS011;8328;52.206;21.006;2023-10-08T10:16:40;2.00;;;0.63;;
16436;SDS011;8328;52.206;21.006;2023-10-08T10:19:15;2.00;;;1.10;;
16436;SDS011;8328;52.206;21.006;2023-10-08T10:21:43;1.43;;;0.60;;
16436;SDS011;8328;52.206;21.006;2023-10-08T10:24:27;0.93;;;0.60;;
16436;SDS011;8328;52.206;21.006;2023-10-08T10:27:08;4.07;;;1.17;;
16436;SDS011;8328;52.206;21.006;2023-10-08T10:32:13;1.13;;;0.70;;
16436;SDS011;8328;52.206;21.006;2023-10-08T10:34:40;4.20;;;0.93;;
16436;SDS011;8328;52.206;21.006;2023-10-08T10:37:07;1.20;;;0.70;;
16436;SDS011;8328;52.206;21.006;2023-10-08T10:39:57;0.93;;;0.70;;
16436;SDS011;8328;52.206;21.006;2023-10-08T10:42:26;2.40;;;1.10;;
16436;SDS011;8328;52.206;21.006;2023-10-08T10:44:55;0.90;;;0.67;;
16436;SDS011;8328;52.206;21.006;2023-10-08T10:47:23;1.63;;;0.87;;
16436;SDS011;8328;52.206;21.006;2023-10-08T10:49:53;1.50;;;0.90;;
16436;SDS011;8328;52.206;21.006;2023-10-08T10:52:31;1.40;;;0.83;;
16436;SDS011;8328;52.206;21.006;2023-10-08T10:55:04;1.67;;;1.07;;
16436;SDS011;8328;52.206;21.006;2023-10-08T10:57:41;2.50;;;1.03;;
16436;SDS011;8328;52.206;21.006;2023-10-08T11:00:08;1.37;;;0.97;;
16436;SDS011;8328;52.206;21.006;2023-10-08T11:02:53;0.70;;;0.50;;
16436;SDS011;8328;52.206;21.006;2023-10-08T11:05:25;2.00;;;0.97;;
16436;SDS011;8328;52.206;21.006;2023-10-08T11:07:56;2.53;;;0.80;;
16436;SDS011;8328;52.206;21.006;2023-10-08T11:10:33;2.90;;;1.00;;
16436;SDS011;8328;52.206;21.006;2023-10-08T11:12:59;3.57;;;0.93;;
16436;SDS011;8328;52.206;21.006;2023-10-08T11:15:27;0.93;;;0.70;;
16436;SDS011;8328;52.206;21.006;2023-10-08T11:18:11;0.93;;;0.73;;
16436;SDS011;8328;52.206;21.006;2023-10-08T11:20:37;1.90;;;0.90;;
16436;SDS011;8328;52.206;21.006;2023-10-08T11:23:09;1.40;;;0.73;;
16436;SDS011;8328;52.206;21.006;2023-10-08T11:25:54;1.50;;;0.87;;
16436;SDS011;8328;52.206;21.006;2023-10-08T11:28:20;1.97;;;1.00;;
16436;SDS011;8328;52.206;21.006;2023-10-08T11:30:47;1.10;;;0.60;;
16436;SDS011;8328;52.206;21.006;2023-10-08T11:33:16;1.43;;;0.80;;
16436;SDS011;8328;52.206;21.006;2023-10-08T11:36:00;0.90;;;0.53;;
16436;SDS011;8328;52.206;21.006;2023-10-08T11:38:28;3.10;;;0.70;;
16436;SDS011;8328;52.206;21.006;2023-10-08T11:41:10;3.37;;;0.90;;
16436;SDS011;8328;52.206;21.006;2023-10-08T11:43:38;1.57;;;0.80;;
16436;SDS011;8328;52.206;21.006;2023-10-08T11:46:05;1.97;;;1.03;;
16436;SDS011;8328;52.206;21.006;2023-10-08T11:48:31;1.00;;;0.70;;
16436;SDS011;8328;52.206;21.006;2023-10-08T11:51:06;3.13;;;0.97;;
16436;SDS011;8328;52.206;21.006;2023-10-08T11:53:37;1.30;;;0.70;;
16436;SDS011;8328;52.206;21.006;2023-10-08T11:56:03;1.83;;;0.93;;
16436;SDS011;8328;52.206;21.006;2023-10-08T11:58:41;3.63;;;1.47;;
16436;SDS011;8328;52.206;21.006;2023-10-08T12:01:11;1.53;;;0.80;;
16436;SDS011;8328;52.206;21.006;2023-10-08T12:03:46;2.67;;;1.10;;
16436;SDS011;8328;52.206;21.006;2023-10-08T12:06:15;2.10;;;1.10;;
16436;SDS011;8328;52.206;21.006;2023-10-08T12:08:44;2.00;;;1.10;;
16436;SDS011;8328;52.206;21.006;2023-10-08T12:11:14;2.83;;;1.00;;
16436;SDS011;8328;52.206;21.006;2023-10-08T12:13:41;3.97;;;1.00;;
16436;SDS011;8328;52.206;21.006;2023-10-08T12:16:13;3.30;;;1.57;;
16436;SDS011;8328;52.206;21.006;2023-10-08T12:18:46;2.30;;;1.20;;
16436;SDS011;8328;52.206;21.006;2023-10-08T12:21:19;2.23;;;1.13;;
16436;SDS011;8328;52.206;21.006;2023-10-08T12:23:46;3.43;;;1.30;;
16436;SDS011;8328;52.206;21.006;2023-10-08T12:26:14;2.00;;;1.17;;
16436;SDS011;8328;52.206;21.006;2023-10-08T12:28:41;2.73;;;1.33;;
16436;SDS011;8328;52.206;21.006;2023-10-08T12:31:16;3.57;;;1.70;;
16436;SDS011;8328;52.206;21.006;2023-10-08T12:33:46;1.90;;;1.00;;
16436;SDS011;8328;52.206;21.006;2023-10-08T12:36:12;3.03;;;1.40;;
16436;SDS011;8328;52.206;21.006;2023-10-08T12:38:39;1.83;;;0.90;;
16436;SDS011;8328;52.206;21.006;2023-10-08T12:41:06;3.60;;;1.23;;
16436;SDS011;8328;52.206;21.006;2023-10-08T12:43:39;1.63;;;0.90;;
16436;SDS011;8328;52.206;21.006;2023-10-08T12:46:17;2.73;;;1.17;;
16436;SDS011;8328;52.206;21.006;2023-10-08T12:48:44;5.07;;;1.57;;
16436;SDS011;8328;52.206;21.006;2023-10-08T12:51:13;4.00;;;1.33;;
16436;SDS011;8328;52.206;21.006;2023-10-08T12:53:39;1.77;;;0.93;;
16436;SDS011;8328;52.206;21.006;2023-10-08T12:56:06;3.23;;;1.47;;
16436;SDS011;8328;52.206;21.006;2023-10-08T12:58:39;4.07;;;1.30;;
16436;SDS011;8328;52.206;21.006;2023-10-08T13:01:29;6.40;;;1.73;;
16436;SDS011;8328;52.206;21.006;2023-10-08T13:03:56;2.40;;;1.17;;
16436;SDS011;8328;52.206;21.006;2023-10-08T13:06:26;3.03;;;1.10;;
16436;SDS011;8328;52.206;21.006;2023-10-08T13:08:56;0.93;;;0.60;;
16436;SDS011;8328;52.206;21.006;2023-10-08T13:11:23;1.70;;;0.80;;
16436;SDS011;8328;52.206;21.006;2023-10-08T13:13:51;1.50;;;0.80;;
16436;SDS011;8328;52.206;21.006;2023-10-08T13:16:18;3.17;;;1.50;;
16436;SDS011;8328;52.206;21.006;2023-10-08T13:18:48;4.20;;;2.00;;
16436;SDS011;8328;52.206;21.006;2023-10-08T13:21:16;1.50;;;0.80;;
16436;SDS011;8328;52.206;21.006;2023-10-08T13:23:54;1.93;;;1.03;;
16436;SDS011;8328;52.206;21.006;2023-10-08T13:26:27;2.30;;;1.03;;
16436;SDS011;8328;52.206;21.006;2023-10-08T13:29:05;1.73;;;0.97;;
16436;SDS011;8328;52.206;21.006;2023-10-08T13:31:31;4.07;;;1.47;;
16436;SDS011;8328;52.206;21.006;2023-10-08T13:34:04;3.30;;;1.10;;
16436;SDS011;8328;52.206;21.006;2023-10-08T13:36:34;1.97;;;1.10;;
16436;SDS011;8328;52.206;21.006;2023-10-08T13:39:04;2.53;;;1.30;;
16436;SDS011;8328;52.206;21.006;2023-10-08T13:41:34;2.90;;;0.97;;
16436;SDS011;8328;52.206;21.006;2023-10-08T13:44:00;1.27;;;0.90;;
16436;SDS011;8328;52.206;21.006;2023-10-08T13:46:30;3.13;;;1.63;;
16436;SDS011;8328;52.206;21.006;2023-10-08T13:49:01;1.27;;;0.80;;
16436;SDS011;8328;52.206;21.006;2023-10-08T13:51:30;1.43;;;0.80;;
16436;SDS011;8328;52.206;21.006;2023-10-08T13:54:00;3.27;;;1.13;;
16436;SDS011;8328;52.206;21.006;2023-10-08T13:56:28;3.97;;;1.00;;
16436;SDS011;8328;52.206;21.006;2023-10-08T13:58:57;2.00;;;1.03;;
16436;SDS011;8328;52.206;21.006;2023-10-08T14:01:50;1.50;;;0.70;;
16436;SDS011;8328;52.206;21.006;2023-10-08T14:04:16;3.93;;;1.00;;
16436;SDS011;8328;52.206;21.006;2023-10-08T14:06:45;1.40;;;0.80;;
16436;SDS011;8328;52.206;21.006;2023-10-08T14:09:20;1.67;;;0.60;;
16436;SDS011;8328;52.206;21.006;2023-10-08T14:11:48;0.60;;;0.50;;
16436;SDS011;8328;52.206;21.006;2023-10-08T14:14:15;0.77;;;0.60;;
16436;SDS011;8328;52.206;21.006;2023-10-08T14:16:44;1.60;;;0.80;;
16436;SDS011;8328;52.206;21.006;2023-10-08T14:19:17;0.67;;;0.53;;
16436;SDS011;8328;52.206;21.006;2023-10-08T14:21:51;3.23;;;1.23;;
16436;SDS011;8328;52.206;21.006;2023-10-08T14:24:25;2.57;;;1.03;;
16436;SDS011;8328;52.206;21.006;2023-10-08T14:26:56;1.53;;;0.87;;
16436;SDS011;8328;52.206;21.006;2023-10-08T14:29:28;9.07;;;1.37;;
16436;SDS011;8328;52.206;21.006;2023-10-08T14:31:54;1.87;;;0.70;;
16436;SDS011;8328;52.206;21.006;2023-10-08T14:34:23;1.40;;;1.00;;
16436;SDS011;8328;52.206;21.006;2023-10-08T14:37:08;2.30;;;0.63;;
16436;SDS011;8328;52.206;21.006;2023-10-08T14:39:53;1.73;;;0.93;;
16436;SDS011;8328;52.206;21.006;2023-10-08T14:42:38;2.50;;;0.90;;
16436;SDS011;8328;52.206;21.006;2023-10-08T14:45:28;3.00;;;1.13;;
16436;SDS011;8328;52.206;21.006;2023-10-08T14:48:00;1.20;;;0.70;;
16436;SDS011;8328;52.206;21.006;2023-10-08T14:50:27;3.93;;;1.40;;
16436;SDS011;8328;52.206;21.006;2023-10-08T14:52:56;1.70;;;0.97;;
16436;SDS011;8328;52.206;21.006;2023-10-08T14:55:25;2.63;;;0.73;;
16436;SDS011;8328;52.206;21.006;2023-10-08T15:00:23;2.20;;;0.90;;
16436;SDS011;8328;52.206;21.006;2023-10-08T15:02:52;1.70;;;0.93;;
16436;SDS011;8328;52.206;21.006;2023-10-08T15:05:23;9.33;;;1.53;;
16436;SDS011;8328;52.206;21.006;2023-10-08T15:07:49;1.67;;;0.90;;
16436;SDS011;8328;52.206;21.006;2023-10-08T15:10:16;2.30;;;1.10;;
16436;SDS011;8328;52.206;21.006;2023-10-08T15:12:43;2.50;;;1.30;;
16436;SDS011;8328;52.206;21.006;2023-10-08T15:15:09;2.07;;;1.10;;
16436;SDS011;8328;52.206;21.006;2023-10-08T15:17:42;4.30;;;1.30;;
16436;SDS011;8328;52.206;21.006;2023-10-08T15:20:09;1.87;;;1.13;;
16436;SDS011;8328;52.206;21.006;2023-10-08T15:22:41;3.37;;;1.33;;